Time;durP1;ratioP1;P1;durP2;ratioP2;P2;SDS_P1;SDS_P2;PMS_P1;PMS_P2;Temp;Humidity;BMP_temperature;BMP_pressure;BME280_temperature;BME280_humidity;BME280_pressure;Samples;Min_cycle;Max_cycle;Signal;HPM_P1;HPM_P2
2023/03/26 00:01:51;;;;;;;32.57;30.23;;;;;;;7.78;100.00;99977.59;5009464;28;20492;-46
2023/03/26 00:04:20;;;;;;;32.40;30.10;;;;;;;7.73;100.00;99986.16;5010630;28;20524;-47
2023/03/26 00:06:49;;;;;;;32.77;30.60;;;;;;;7.67;100.00;99991.44;5010193;28;20452;-46
2023/03/26 00:09:17;;;;;;;33.10;31.10;;;;;;;7.67;100.00;99986.13;5010001;28;20504;-46
2023/03/26 00:11:46;;;;;;;35.37;32.53;;;;;;;7.62;100.00;99988.53;5009156;28;20584;-48
2023/03/26 00:14:16;;;;;;;33.30;31.03;;;;;;;7.62;100.00;99994.66;5009899;28;20439;-47
2023/03/26 00:16:46;;;;;;;33.23;30.77;;;;;;;7.53;100.00;99995.81;5010272;28;20830;-48
2023/03/26 00:19:14;;;;;;;31.60;29.60;;;;;;;7.47;100.00;100001.91;5010042;28;20448;-46
2023/03/26 00:21:43;;;;;;;33.63;31.07;;;;;;;7.42;100.00;99999.03;5006437;28;20489;-46
2023/03/26 00:24:14;;;;;;;31.83;29.60;;;;;;;7.42;100.00;100006.16;4996692;28;20449;-46
2023/03/26 00:26:43;;;;;;;31.40;29.53;;;;;;;7.36;100.00;100014.88;4996459;28;20983;-47
2023/03/26 00:29:12;;;;;;;32.87;29.97;;;;;;;7.31;100.00;100017.31;4996418;28;20962;-47
2023/03/26 00:31:44;;;;;;;33.90;30.97;;;;;;;7.34;100.00;100019.56;4995684;28;20600;-47
2023/03/26 00:34:14;;;;;;;31.70;29.53;;;;;;;7.22;100.00;100030.72;4997015;28;20434;-48
2023/03/26 00:36:45;;;;;;;33.10;30.60;;;;;;;7.10;100.00;100026.13;4996927;28;20434;-44
2023/03/26 00:39:14;;;;;;;32.87;30.80;;;;;;;7.12;100.00;100029.41;4996538;28;20434;-44
2023/03/26 00:41:41;;;;;;;31.57;29.43;;;;;;;7.01;100.00;100037.88;4995851;28;20473;-43
2023/03/26 00:44:10;;;;;;;31.97;29.70;;;;;;;6.98;100.00;100036.44;4996266;28;20437;-45
2023/03/26 00:46:38;;;;;;;30.90;29.17;;;;;;;6.98;100.00;100041.72;4996148;28;20528;-43
2023/03/26 00:49:09;;;;;;;31.23;29.10;;;;;;;6.93;100.00;100046.75;4996368;28;20989;-44
2023/03/26 00:51:37;;;;;;;31.43;29.60;;;;;;;6.95;100.00;100035.97;4995685;28;20477;-46
2023/03/26 00:54:07;;;;;;;31.03;29.23;;;;;;;6.88;100.00;100046.50;4995992;28;20914;-45
2023/03/26 00:56:35;;;;;;;30.27;28.67;;;;;;;6.92;100.00;100044.31;4996115;28;20434;-47
2023/03/26 00:59:03;;;;;;;30.70;29.20;;;;;;;6.90;100.00;100049.00;4996404;28;20517;-47
2023/03/26 01:01:31;;;;;;;30.57;28.93;;;;;;;6.93;100.00;100057.34;4995366;28;20480;-46
2023/03/26 01:04:22;;;;;;;30.63;29.03;;;;;;;6.98;100.00;100059.47;4995970;28;20445;-46
2023/03/26 01:06:51;;;;;;;32.63;30.43;;;;;;;7.00;100.00;100068.03;4995604;28;20434;-47
2023/03/26 01:09:24;;;;;;;30.60;28.77;;;;;;;7.03;100.00;100071.13;4995566;28;20966;-44
2023/03/26 01:11:52;;;;;;;31.60;29.20;;;;;;;6.99;100.00;100079.66;4994638;28;20476;-45
2023/03/26 01:14:22;;;;;;;31.03;29.20;;;;;;;6.91;100.00;100079.78;4995207;28;20445;-47
2023/03/26 01:16:53;;;;;;;31.83;29.73;;;;;;;6.86;100.00;100083.00;4995459;28;20481;-47
2023/03/26 01:19:29;;;;;;;31.00;29.17;;;;;;;6.91;100.00;100085.91;4995150;28;20436;-44
2023/03/26 01:21:57;;;;;;;30.60;29.07;;;;;;;6.97;100.00;100076.34;4994340;28;20469;-44
2023/03/26 01:24:27;;;;;;;28.90;27.13;;;;;;;6.95;100.00;100089.81;4995187;28;20928;-46
2023/03/26 01:27:16;;;;;;;29.27;27.50;;;;;;;6.96;100.00;100088.78;4995289;28;20847;-45
2023/03/26 01:29:51;;;;;;;29.20;27.07;;;;;;;6.98;100.00;100094.75;4995219;28;20829;-44
2023/03/26 01:32:29;;;;;;;29.47;27.37;;;;;;;7.01;100.00;100097.03;4993950;28;20512;-46
2023/03/26 01:35:11;;;;;;;31.60;29.60;;;;;;;6.98;100.00;100100.03;4994501;28;20780;-44
2023/03/26 01:37:51;;;;;;;29.57;27.97;;;;;;;6.98;100.00;100105.34;4995141;28;20440;-48
2023/03/26 01:40:26;;;;;;;30.57;28.47;;;;;;;6.97;100.00;100100.22;4994653;28;20535;-47
2023/03/26 01:42:58;;;;;;;30.77;28.97;;;;;;;6.99;100.00;100095.56;4994490;28;20537;-48
2023/03/26 01:45:30;;;;;;;29.93;28.20;;;;;;;7.01;100.00;100106.78;4994853;28;20496;-48
2023/03/26 01:47:58;;;;;;;30.97;29.40;;;;;;;7.03;100.00;100102.94;4994947;28;20847;-45
2023/03/26 01:50:26;;;;;;;29.57;28.07;;;;;;;7.02;100.00;100093.34;4994481;28;20989;-48
2023/03/26 01:52:54;;;;;;;29.40;27.97;;;;;;;6.96;100.00;100103.91;4994403;28;20484;-43
2023/03/26 01:55:26;;;;;;;30.00;28.00;;;;;;;6.98;100.00;100096.56;4994835;28;20438;-45
2023/03/26 01:58:02;;;;;;;31.27;28.73;;;;;;;6.96;100.00;100096.75;4994123;28;20437;-44
2023/03/26 02:00:33;;;;;;;30.27;27.87;;;;;;;6.96;100.00;100095.94;4994179;28;20464;-45
2023/03/26 02:03:16;;;;;;;29.30;27.70;;;;;;;6.96;100.00;100099.41;4994025;28;20462;-47
2023/03/26 02:05:52;;;;;;;29.87;28.23;;;;;;;6.93;100.00;100104.28;4994294;28;20526;-44
2023/03/26 02:08:24;;;;;;;28.67;26.90;;;;;;;6.90;100.00;100102.78;4994458;28;20466;-47
2023/03/26 02:10:57;;;;;;;30.23;28.40;;;;;;;6.90;100.00;100102.78;4993710;28;20550;-48
2023/03/26 02:13:26;;;;;;;30.23;28.13;;;;;;;6.89;100.00;100098.53;4993839;28;20887;-46
2023/03/26 02:15:59;;;;;;;28.67;27.17;;;;;;;6.86;100.00;100096.25;4993688;28;20438;-46
2023/03/26 02:18:34;;;;;;;29.07;27.40;;;;;;;6.82;100.00;100107.41;4994140;28;20488;-45
2023/03/26 02:21:04;;;;;;;31.60;29.17;;;;;;;6.84;100.00;100095.59;4993610;28;20465;-45
2023/03/26 02:23:34;;;;;;;29.60;27.70;;;;;;;6.83;100.00;100096.63;4994384;28;20981;-46
2023/03/26 02:26:06;;;;;;;29.07;27.20;;;;;;;6.78;100.00;100109.59;4994123;28;20449;-47
2023/03/26 02:28:34;;;;;;;29.80;27.90;;;;;;;6.71;100.00;100111.38;4993289;28;20432;-46
2023/03/26 02:31:02;;;;;;;29.70;27.80;;;;;;;6.40;100.00;100118.72;4993462;28;20469;-47
2023/03/26 02:33:30;;;;;;;27.93;26.60;;;;;;;6.19;100.00;100122.13;4993477;28;20477;-47
2023/03/26 02:36:00;;;;;;;28.00;26.60;;;;;;;6.03;100.00;100123.13;5014137;23;20543;-44
2023/03/26 02:38:29;;;;;;;28.63;27.23;;;;;;;5.99;100.00;100135.09;5007671;28;20472;-49
2023/03/26 02:40:56;;;;;;;28.67;27.27;;;;;;;5.86;100.00;100129.59;5006872;28;20465;-50
2023/03/26 02:43:25;;;;;;;29.80;27.57;;;;;;;5.86;100.00;100131.41;4996147;28;20449;-47
2023/03/26 02:45:53;;;;;;;30.13;28.23;;;;;;;5.83;100.00;100137.88;4993988;28;20496;-46
2023/03/26 02:48:21;;;;;;;30.67;28.67;;;;;;;5.91;100.00;100137.81;4994896;28;20433;-44
2023/03/26 02:50:53;;;;;;;30.63;28.93;;;;;;;5.96;100.00;100126.69;4996151;28;20493;-45
2023/03/26 02:53:22;;;;;;;32.57;29.93;;;;;;;5.99;100.00;100132.44;4995824;28;21065;-44
2023/03/26 02:55:50;;;;;;;32.17;30.07;;;;;;;6.00;100.00;100135.91;4995924;28;21030;-43
2023/03/26 02:58:19;;;;;;;31.47;29.20;;;;;;;6.00;100.00;100133.28;4995018;28;20454;-46
2023/03/26 03:00:49;;;;;;;33.00;29.90;;;;;;;5.91;100.00;100137.81;5001214;28;20544;-44
2023/03/26 03:03:17;;;;;;;30.80;29.10;;;;;;;5.82;100.00;100146.00;5015766;28;20453;-43
2023/03/26 03:05:44;;;;;;;33.80;30.90;;;;;;;5.61;100.00;100159.91;5015717;28;20475;-48
2023/03/26 03:08:12;;;;;;;33.60;30.77;;;;;;;5.50;100.00;100155.03;5015855;28;20433;-46
2023/03/26 03:10:40;;;;;;;32.80;30.40;;;;;;;5.29;100.00;100131.06;5015747;28;20919;-50
2023/03/26 03:13:07;;;;;;;34.13;30.77;;;;;;;5.25;100.00;100162.34;5015636;28;20989;-49
2023/03/26 03:15:35;;;;;;;35.60;32.10;;;;;;;5.30;100.00;100149.41;5015834;28;20476;-45
2023/03/26 03:18:04;;;;;;;37.43;34.10;;;;;;;5.21;100.00;100155.75;5016741;28;20445;-43
2023/03/26 03:20:34;;;;;;;37.67;34.00;;;;;;;5.29;100.00;100157.50;5015562;28;20464;-46
2023/03/26 03:23:02;;;;;;;35.83;32.73;;;;;;;5.24;100.00;100157.22;5017522;28;20486;-46
2023/03/26 03:25:31;;;;;;;36.77;33.53;;;;;;;5.23;100.00;100151.09;5015641;28;20461;-44
2023/03/26 03:27:59;;;;;;;35.57;32.43;;;;;;;5.29;100.00;100145.13;5016591;28;20439;-42
2023/03/26 03:30:26;;;;;;;35.97;32.30;;;;;;;5.25;100.00;100153.59;5016221;28;20514;-46
2023/03/26 03:32:57;;;;;;;35.27;31.77;;;;;;;5.19;100.00;100159.59;5014859;28;20476;-47
2023/03/26 03:35:26;;;;;;;34.57;31.67;;;;;;;5.24;100.00;100152.75;5015836;28;20476;-50
2023/03/26 03:37:54;;;;;;;34.80;31.40;;;;;;;5.19;100.00;100159.59;5015816;28;20421;-51
2023/03/26 03:40:22;;;;;;;33.57;31.30;;;;;;;5.19;100.00;100159.59;5015557;28;20511;-46
2023/03/26 03:42:50;;;;;;;34.87;32.07;;;;;;;5.07;100.00;100151.25;5015662;28;20437;-46
2023/03/26 03:45:18;;;;;;;35.67;32.80;;;;;;;5.19;100.00;100156.94;5015155;28;20452;-45
2023/03/26 03:47:46;;;;;;;35.60;33.03;;;;;;;5.16;100.00;100152.81;5015700;28;20429;-51
2023/03/26 03:50:13;;;;;;;35.83;32.73;;;;;;;5.13;100.00;100152.34;5015382;28;20425;-48
2023/03/26 03:52:43;;;;;;;34.83;32.10;;;;;;;5.28;100.00;100163.81;5015457;28;20473;-47
2023/03/26 03:55:12;;;;;;;35.40;32.73;;;;;;;5.11;100.00;100164.94;5015368;28;20467;-47
2023/03/26 03:57:40;;;;;;;34.77;32.13;;;;;;;5.11;100.00;100163.09;5017659;28;20499;-47
2023/03/26 04:00:10;;;;;;;35.93;33.30;;;;;;;5.17;100.00;100161.59;5019493;28;20433;-47
2023/03/26 04:02:41;;;;;;;34.10;32.07;;;;;;;5.14;100.00;100154.81;5019063;28;20433;-42
2023/03/26 04:05:10;;;;;;;35.67;32.43;;;;;;;5.06;100.00;100149.59;5019075;28;20511;-46
2023/03/26 04:07:38;;;;;;;36.57;33.67;;;;;;;5.02;100.00;100164.97;5018849;28;20953;-48
2023/03/26 04:10:09;;;;;;;34.97;32.67;;;;;;;5.05;100.00;100170.91;5019083;28;20471;-43
2023/03/26 04:12:37;;;;;;;34.50;31.90;;;;;;;5.02;100.00;100166.78;5018632;28;20822;-49
2023/03/26 04:15:06;;;;;;;36.60;33.10;;;;;;;5.10;100.00;100176.50;5019482;28;20822;-43
2023/03/26 04:17:41;;;;;;;34.50;31.90;;;;;;;4.99;100.00;100172.41;5018734;28;20456;-46
2023/03/26 04:20:13;;;;;;;34.77;32.03;;;;;;;4.98;100.00;100166.31;5018347;28;20429;-45
2023/03/26 04:22:42;;;;;;;36.37;32.40;;;;;;;5.07;100.00;100168.91;5018433;28;20460;-43
2023/03/26 04:25:14;;;;;;;34.13;30.87;;;;;;;4.98;100.00;100174.25;5018187;28;20460;-49
2023/03/26 04:27:42;;;;;;;33.97;31.40;;;;;;;4.92;100.00;100171.47;5018163;28;20425;-46
2023/03/26 04:30:15;;;;;;;34.00;31.20;;;;;;;4.87;100.00;100168.50;5018513;28;20744;-44
2023/03/26 04:32:43;;;;;;;35.35;32.15;;;;;;;4.84;100.00;100174.13;5018798;28;20432;-45
2023/03/26 04:35:13;;;;;;;34.27;31.60;;;;;;;4.76;100.00;100164.47;5019430;28;20511;-45
2023/03/26 04:37:43;;;;;;;32.93;30.73;;;;;;;4.74;100.00;100173.56;5018612;28;20464;-44
2023/03/26 04:40:15;;;;;;;32.53;29.90;;;;;;;4.69;100.00;100160.84;5018443;28;20508;-44
2023/03/26 04:42:44;;;;;;;35.10;31.93;;;;;;;4.70;100.00;100166.97;5019527;28;20484;-45
2023/03/26 04:45:13;;;;;;;35.13;32.20;;;;;;;4.61;100.00;100168.81;5018355;28;20491;-50
2023/03/26 04:47:41;;;;;;;35.10;32.20;;;;;;;4.71;100.00;100173.91;5018835;28;20444;-48
2023/03/26 04:50:11;;;;;;;36.07;32.70;;;;;;;4.72;100.00;100171.06;5017658;28;20433;-44
2023/03/26 04:52:40;;;;;;;36.87;33.57;;;;;;;4.65;100.00;100174.59;5018417;28;20453;-43
2023/03/26 04:55:23;;;;;;;35.97;32.83;;;;;;;4.73;100.00;100172.72;5018394;28;20502;-43
2023/03/26 04:57:55;;;;;;;33.27;30.73;;;;;;;4.67;100.00;100175.22;5018224;28;20870;-45
2023/03/26 05:00:24;;;;;;;35.00;31.90;;;;;;;4.70;100.00;100174.88;5018248;28;20461;-43
2023/03/26 05:02:54;;;;;;;33.13;30.50;;;;;;;4.66;100.00;100174.41;5017968;28;20528;-46
2023/03/26 05:05:22;;;;;;;33.23;30.43;;;;;;;4.65;100.00;100172.78;5017410;28;20445;-43
2023/03/26 05:07:50;;;;;;;32.90;30.73;;;;;;;4.67;100.00;100177.88;5014067;28;20516;-44
2023/03/26 05:10:20;;;;;;;33.70;30.57;;;;;;;4.67;100.00;100165.50;4994969;28;20513;-45
2023/03/26 05:12:49;;;;;;;32.03;29.20;;;;;;;4.70;100.00;100169.59;4994158;28;20434;-44
2023/03/26 05:15:16;;;;;;;33.33;30.33;;;;;;;4.71;100.00;100177.38;4991450;28;20481;-45
2023/03/26 05:17:45;;;;;;;34.07;30.90;;;;;;;4.66;100.00;100171.75;4992373;28;20908;-45
2023/03/26 05:20:19;;;;;;;35.13;32.20;;;;;;;4.70;100.00;100166.97;4991313;28;20516;-45
2023/03/26 05:22:48;;;;;;;33.37;30.90;;;;;;;4.68;100.00;100164.50;4992028;28;20472;-45
2023/03/26 05:25:16;;;;;;;32.90;29.50;;;;;;;4.75;100.00;100170.72;4991631;28;20509;-45
2023/03/26 05:27:45;;;;;;;34.30;30.80;;;;;;;4.80;100.00;100165.78;4991716;28;20430;-45
2023/03/26 05:30:15;;;;;;;33.07;30.17;;;;;;;4.78;100.00;100166.94;4991591;28;20935;-45
2023/03/26 05:32:43;;;;;;;32.73;29.93;;;;;;;4.76;100.00;100172.38;4991993;28;20445;-44
2023/03/26 05:35:11;;;;;;;30.50;28.27;;;;;;;4.85;100.00;100173.97;4992050;28;20517;-48
2023/03/26 05:37:40;;;;;;;31.13;28.57;;;;;;;4.80;100.00;100184.25;4992170;28;20426;-45
2023/03/26 05:40:11;;;;;;;31.50;28.60;;;;;;;4.79;100.00;100174.69;4992362;28;20441;-45
2023/03/26 05:42:39;;;;;;;29.13;26.37;;;;;;;4.91;100.00;100177.75;4992315;28;20452;-46
2023/03/26 05:45:11;;;;;;;30.83;27.50;;;;;;;5.00;100.00;100171.41;4992949;28;20460;-44
2023/03/26 05:47:39;;;;;;;32.80;29.97;;;;;;;4.87;100.00;100171.97;4992831;28;20437;-45
2023/03/26 05:50:08;;;;;;;29.80;27.40;;;;;;;4.92;100.00;100164.38;4992331;28;20830;-48
2023/03/26 05:52:36;;;;;;;29.87;27.07;;;;;;;5.00;100.00;100180.19;4991965;28;20441;-45
2023/03/26 05:55:05;;;;;;;31.17;27.93;;;;;;;5.03;100.00;100176.34;4991975;28;20481;-47
2023/03/26 05:57:34;;;;;;;30.50;27.80;;;;;;;5.08;100.00;100179.28;4992448;28;20844;-47
2023/03/26 06:00:03;;;;;;;29.80;27.20;;;;;;;5.08;100.00;100176.66;4990180;28;20440;-48
2023/03/26 06:02:32;;;;;;;30.47;27.27;;;;;;;5.08;100.00;100176.66;4992095;28;20521;-45
2023/03/26 06:05:01;;;;;;;28.03;25.40;;;;;;;5.24;100.00;100183.66;5009533;28;20425;-51
2023/03/26 06:07:30;;;;;;;28.30;26.00;;;;;;;5.32;100.00;100179.13;5012307;28;21002;-47
2023/03/26 06:09:57;;;;;;;29.00;26.50;;;;;;;5.30;100.00;100172.38;5012264;28;20439;-48
2023/03/26 06:12:25;;;;;;;28.80;26.10;;;;;;;6.14;100.00;100182.75;5011805;28;20448;-47
2023/03/26 06:14:53;;;;;;;25.30;23.27;;;;;;;6.77;100.00;100184.00;5008954;28;20473;-45
2023/03/26 06:17:20;;;;;;;24.77;20.63;;;;;;;7.38;100.00;100180.00;4990988;28;20457;-48
2023/03/26 06:19:50;;;;;;;25.47;19.10;;;;;;;8.00;100.00;100172.97;4989289;28;20430;-48
2023/03/26 06:22:17;;;;;;;20.23;18.30;;;;;;;8.87;100.00;100175.88;4991829;28;20469;-49
2023/03/26 06:24:45;;;;;;;24.77;18.53;;;;;;;9.51;100.00;100175.44;4992545;28;20441;-50
2023/03/26 06:27:13;;;;;;;22.83;16.87;;;;;;;9.39;100.00;100178.69;4992488;28;20460;-47
2023/03/26 06:29:41;;;;;;;19.53;17.60;;;;;;;10.05;100.00;100176.06;4991169;28;20436;-46
2023/03/26 06:32:08;;;;;;;23.70;17.67;;;;;;;10.16;94.92;100183.44;4991418;28;20462;-47
2023/03/26 06:34:46;;;;;;;18.67;16.67;;;;;;;10.37;87.96;100188.53;4991831;28;21002;-47
2023/03/26 06:37:15;;;;;;;25.20;16.50;;;;;;;10.11;85.21;100185.06;4990947;28;20473;-45
2023/03/26 06:39:43;;;;;;;18.10;16.27;;;;;;;9.76;88.13;100185.28;4994836;28;20459;-47
2023/03/26 06:42:11;;;;;;;16.70;15.57;;;;;;;9.14;93.70;100193.56;4990319;28;20473;-45
2023/03/26 06:44:39;;;;;;;25.70;16.07;;;;;;;8.94;99.89;100190.03;5000918;28;20433;-45
2023/03/26 06:47:06;;;;;;;23.00;16.13;;;;;;;9.25;96.42;100197.50;4992950;28;20456;-46
2023/03/26 06:49:34;;;;;;;19.10;14.20;;;;;;;9.58;93.03;100200.22;4990467;28;20438;-47
2023/03/26 06:52:02;;;;;;;19.30;13.67;;;;;;;9.73;82.92;100199.03;4989444;28;20470;-45
2023/03/26 06:54:31;;;;;;;28.13;14.87;;;;;;;9.29;88.54;100190.75;4989896;28;20527;-44
2023/03/26 06:56:59;;;;;;;17.23;12.97;;;;;;;8.85;97.74;100204.53;4988966;28;20461;-46
2023/03/26 06:59:27;;;;;;;15.47;12.70;;;;;;;8.62;96.08;100207.50;4990130;28;20434;-45
2023/03/26 07:01:55;;;;;;;13.70;12.23;;;;;;;9.01;98.58;100214.81;4990001;28;20466;-45
2023/03/26 07:04:22;;;;;;;14.47;13.00;;;;;;;9.34;98.83;100205.09;4989498;28;20462;-45
2023/03/26 07:06:50;;;;;;;17.23;13.37;;;;;;;9.56;88.95;100212.94;4990166;28;20462;-47
2023/03/26 07:09:18;;;;;;;18.13;13.10;;;;;;;9.85;90.34;100202.72;4991489;28;20469;-45
2023/03/26 07:11:47;;;;;;;12.67;11.40;;;;;;;8.64;83.64;100207.28;4990195;28;20461;-49
2023/03/26 07:14:15;;;;;;;15.30;11.83;;;;;;;9.05;92.33;100216.06;4990665;28;20430;-44
2023/03/26 07:16:43;;;;;;;15.07;11.90;;;;;;;9.35;91.75;100200.59;4990444;28;20891;-52
2023/03/26 07:19:10;;;;;;;16.37;12.40;;;;;;;9.12;91.21;100214.25;4990936;28;20434;-46
2023/03/26 07:21:38;;;;;;;17.50;13.30;;;;;;;8.91;94.67;100211.72;4989686;28;21212;-45
2023/03/26 07:24:10;;;;;;;22.63;13.43;;;;;;;8.71;92.30;100203.66;4990289;28;20441;-46
2023/03/26 07:26:51;;;;;;;21.77;12.73;;;;;;;8.28;97.99;100210.97;4989737;28;20721;-47
2023/03/26 07:29:28;;;;;;;18.33;12.20;;;;;;;8.36;93.76;100209.19;4990928;28;20851;-48
2023/03/26 07:32:05;;;;;;;13.70;12.13;;;;;;;7.58;100.00;100210.19;4990229;28;20461;-45
2023/03/26 07:34:44;;;;;;;21.30;11.57;;;;;;;7.56;100.00;100214.81;4972564;28;20448;-44
2023/03/26 07:37:21;;;;;;;12.67;10.07;;;;;;;7.53;100.00;100223.16;4992798;28;20442;-45
2023/03/26 07:39:54;;;;;;;25.40;11.40;;;;;;;7.28;100.00;100214.78;5013117;28;20425;-45
2023/03/26 07:42:37;;;;;;;20.07;11.33;;;;;;;7.33;100.00;100215.03;4996537;28;20574;-46
2023/03/26 07:45:17;;;;;;;19.23;11.23;;;;;;;7.56;100.00;100228.09;4994042;28;20573;-45
2023/03/26 07:47:45;;;;;;;15.50;10.17;;;;;;;7.46;100.00;100220.47;4995162;28;20448;-45
2023/03/26 07:50:16;;;;;;;15.20;10.40;;;;;;;7.48;100.00;100233.53;4994201;28;20962;-45
2023/03/26 07:52:46;;;;;;;13.40;10.53;;;;;;;7.57;100.00;100222.63;4969812;28;20462;-45
2023/03/26 07:55:15;;;;;;;15.90;10.77;;;;;;;7.58;100.00;100228.75;4975972;28;21082;-46
2023/03/26 07:57:53;;;;;;;12.93;9.60;;;;;;;7.46;100.00;100217.00;4994428;28;20520;-46
2023/03/26 08:00:26;;;;;;;15.33;10.60;;;;;;;7.12;100.00;100223.78;4993630;28;20931;-47
2023/03/26 08:03:10;;;;;;;19.53;10.47;;;;;;;7.08;100.00;100229.63;4988192;28;20480;-48
2023/03/26 08:05:44;;;;;;;13.63;10.10;;;;;;;7.40;100.00;100225.72;4993491;28;20438;-49
2023/03/26 08:08:19;;;;;;;17.07;10.47;;;;;;;7.14;100.00;100218.28;4993763;28;20521;-45
2023/03/26 08:11:02;;;;;;;17.10;9.60;;;;;;;7.14;100.00;100234.19;4992952;28;20433;-46
2023/03/26 08:13:39;;;;;;;10.37;9.27;;;;;;;7.26;100.00;100231.88;4992347;28;21013;-46
2023/03/26 08:16:12;;;;;;;14.20;9.47;;;;;;;7.35;100.00;100231.56;4992172;28;20531;-44
2023/03/26 08:18:47;;;;;;;15.70;9.97;;;;;;;7.31;100.00;100230.31;4992756;28;20931;-44
2023/03/26 08:21:19;;;;;;;13.10;9.80;;;;;;;7.36;100.00;100235.03;4992250;28;20988;-47
2023/03/26 08:23:58;;;;;;;16.77;10.80;;;;;;;7.69;100.00;100226.41;4992141;28;20468;-45
2023/03/26 08:26:35;;;;;;;17.57;10.73;;;;;;;7.92;100.00;100234.16;4991869;28;20500;-44
2023/03/26 08:29:17;;;;;;;17.80;9.80;;;;;;;7.97;100.00;100236.25;4993210;28;20484;-46
2023/03/26 08:31:47;;;;;;;13.30;9.17;;;;;;;7.56;99.76;100225.44;4992921;28;20460;-44
2023/03/26 08:34:15;;;;;;;18.77;8.43;;;;;;;7.35;100.00;100236.06;4993003;28;20461;-50
2023/03/26 08:36:43;;;;;;;13.80;10.23;;;;;;;7.27;100.00;100233.50;4992309;28;20509;-47
2023/03/26 08:39:11;;;;;;;13.57;9.80;;;;;;;7.29;100.00;100237.63;4991453;28;20454;-45
2023/03/26 08:42:04;;;;;;;15.10;9.03;;;;;;;7.21;100.00;100235.09;4993680;28;20769;-47
2023/03/26 08:45:12;;;;;;;14.43;10.10;;;;;;;7.11;100.00;100240.69;4992651;28;20449;-45
2023/03/26 08:48:23;;;;;;;19.27;10.10;;;;;;;7.48;100.00;100244.16;4991183;28;20437;-47
2023/03/26 08:51:23;;;;;;;9.77;8.77;;;;;;;7.54;100.00;100241.56;4993394;28;20441;-45
2023/03/26 08:54:29;;;;;;;10.57;9.23;;;;;;;7.40;100.00;100245.09;4993081;28;20469;-48
2023/03/26 08:57:15;;;;;;;21.20;9.33;;;;;;;7.28;100.00;100246.59;4992961;28;20492;-46
2023/03/26 09:00:04;;;;;;;15.67;9.30;;;;;;;7.44;100.00;100243.69;4993429;28;20488;-48
2023/03/26 09:02:53;;;;;;;20.53;9.23;;;;;;;7.60;100.00;100246.13;4993157;28;20601;-47
2023/03/26 09:05:54;;;;;;;17.53;8.90;;;;;;;7.69;100.00;100255.59;4991384;28;20524;-46
2023/03/26 09:08:50;;;;;;;16.73;7.50;;;;;;;7.56;98.26;100252.81;4992397;28;20522;-47
2023/03/26 09:11:53;;;;;;;8.13;7.20;;;;;;;7.53;97.50;100255.00;4991952;28;20966;-47
2023/03/26 09:14:52;;;;;;;11.80;7.90;;;;;;;7.63;100.00;100250.22;4992724;28;20442;-44
2023/03/26 09:17:44;;;;;;;15.00;8.83;;;;;;;7.69;97.39;100244.16;4961101;28;20599;-45
2023/03/26 09:20:47;;;;;;;18.57;7.37;;;;;;;7.36;100.00;100249.13;4993555;28;20476;-48
2023/03/26 09:23:59;;;;;;;10.27;7.80;;;;;;;7.28;95.08;100251.91;4992593;28;20465;-47
2023/03/26 09:26:40;;;;;;;14.27;7.97;;;;;;;7.25;99.74;100244.31;4992285;28;20975;-46
2023/03/26 09:29:50;;;;;;;14.80;7.87;;;;;;;7.35;95.37;100247.47;4993527;28;20433;-44
2023/03/26 09:32:45;;;;;;;17.00;7.70;;;;;;;7.80;98.32;100233.84;4991304;28;21010;-44
2023/03/26 09:35:28;;;;;;;16.60;8.93;;;;;;;7.83;98.69;100245.91;5003688;28;20540;-46
2023/03/26 09:38:02;;;;;;;17.63;9.70;;;;;;;7.92;100.00;100238.63;5002791;28;20943;-45
2023/03/26 09:40:38;;;;;;;13.00;9.47;;;;;;;8.00;99.40;100241.19;4999590;28;20434;-43
2023/03/26 09:43:36;;;;;;;14.77;8.33;;;;;;;7.94;91.88;100232.16;5002153;28;20545;-44
2023/03/26 09:46:17;;;;;;;17.13;7.50;;;;;;;8.06;92.76;100235.91;4996184;28;20914;-43
2023/03/26 09:49:19;;;;;;;14.87;7.80;;;;;;;8.17;91.11;100235.38;4999943;28;20521;-42
2023/03/26 09:51:58;;;;;;;13.40;8.60;;;;;;;8.06;96.00;100241.22;4994633;28;20433;-44
2023/03/26 09:54:43;;;;;;;17.83;7.83;;;;;;;8.28;99.42;100234.03;5001004;28;20437;-47
2023/03/26 09:57:24;;;;;;;13.47;7.33;;;;;;;8.93;90.43;100227.47;4998236;28;20892;-47
2023/03/26 10:00:08;;;;;;;15.60;6.90;;;;;;;9.36;91.42;100224.34;5000247;28;20442;-44
2023/03/26 10:03:14;;;;;;;9.20;6.47;;;;;;;8.87;91.86;100229.06;4999551;28;20461;-45
2023/03/26 10:05:53;;;;;;;14.13;6.33;;;;;;;8.59;91.67;100233.63;4995012;28;20491;-50
2023/03/26 10:08:54;;;;;;;18.63;6.93;;;;;;;8.41;94.27;100225.34;4999745;28;20434;-43
2023/03/26 10:11:33;;;;;;;12.03;8.73;;;;;;;8.30;97.29;100232.84;4997985;28;20488;-45
2023/03/26 10:14:09;;;;;;;12.20;7.07;;;;;;;8.31;96.59;100233.66;5000487;28;21007;-46
2023/03/26 10:16:47;;;;;;;20.77;8.23;;;;;;;8.45;89.71;100238.06;4996689;28;20473;-45
2023/03/26 10:19:39;;;;;;;13.73;7.90;;;;;;;8.62;92.73;100239.38;4997530;28;20487;-43
2023/03/26 10:22:23;;;;;;;10.63;8.00;;;;;;;8.54;89.70;100246.69;4988274;28;20575;-43
2023/03/26 10:25:22;;;;;;;16.60;7.40;;;;;;;8.40;93.93;100248.44;4993729;28;20426;-43
2023/03/26 10:28:01;;;;;;;11.60;6.63;;;;;;;8.40;91.61;100252.94;4994436;28;20426;-49
2023/03/26 10:30:44;;;;;;;11.00;7.07;;;;;;;8.44;88.71;100251.53;4992520;28;20421;-47
2023/03/26 10:33:22;;;;;;;7.20;6.13;;;;;;;8.42;84.74;100246.44;4984564;28;20464;-48
2023/03/26 10:36:02;;;;;;;11.73;7.23;;;;;;;8.68;82.43;100245.75;4991629;28;20457;-44
2023/03/26 10:38:49;;;;;;;7.40;6.70;;;;;;;8.60;88.53;100246.72;4994540;28;20793;-44
2023/03/26 10:41:21;;;;;;;11.60;6.90;;;;;;;8.41;82.59;100242.13;4993846;28;20430;-44
2023/03/26 10:44:26;;;;;;;8.80;6.43;;;;;;;8.38;85.01;100242.50;4994785;28;20508;-45
2023/03/26 10:47:13;;;;;;;8.83;6.20;;;;;;;8.54;83.58;100246.69;4991215;28;20448;-43
2023/03/26 10:50:02;;;;;;;9.00;6.47;;;;;;;8.62;89.70;100243.88;4993287;28;20480;-45
2023/03/26 10:52:37;;;;;;;9.10;5.70;;;;;;;8.69;89.42;100237.56;4995777;28;20462;-45
2023/03/26 10:55:14;;;;;;;8.80;6.40;;;;;;;8.81;86.99;100236.00;4994099;28;20533;-44
2023/03/26 10:57:45;;;;;;;13.13;6.50;;;;;;;9.08;82.78;100239.59;4997265;28;20474;-46
2023/03/26 11:00:19;;;;;;;9.50;6.70;;;;;;;8.80;83.17;100241.53;4992120;28;20433;-44
2023/03/26 11:03:04;;;;;;;12.53;5.80;;;;;;;8.51;78.83;100257.72;4988897;28;20869;-46
2023/03/26 11:05:46;;;;;;;12.57;6.30;;;;;;;8.71;82.56;100248.03;4993666;28;20454;-45
2023/03/26 11:08:21;;;;;;;18.00;6.63;;;;;;;8.87;78.50;100240.53;4998757;28;21033;-44
2023/03/26 11:11:06;;;;;;;11.73;6.17;;;;;;;8.85;80.62;100247.06;4996534;28;20441;-43
2023/03/26 11:13:46;;;;;;;15.50;7.20;;;;;;;8.77;83.77;100250.72;4997828;28;20468;-47
2023/03/26 11:16:25;;;;;;;11.73;6.30;;;;;;;8.75;88.56;100255.41;4993938;28;20474;-45
2023/03/26 11:18:58;;;;;;;8.30;6.40;;;;;;;8.54;77.27;100258.13;5003279;28;20834;-44
2023/03/26 11:21:34;;;;;;;12.20;6.60;;;;;;;8.26;85.96;100254.66;4997500;28;20426;-44
2023/03/26 11:24:39;;;;;;;12.43;6.83;;;;;;;8.19;87.21;100261.72;4997770;28;20470;-43
2023/03/26 11:27:17;;;;;;;11.40;6.03;;;;;;;8.27;85.87;100257.13;4998869;28;20535;-45
2023/03/26 11:30:21;;;;;;;8.00;5.43;;;;;;;8.75;85.67;100263.38;5001957;28;20428;-43
2023/03/26 11:32:53;;;;;;;10.70;6.83;;;;;;;8.72;80.18;100268.28;4991887;28;20876;-44
2023/03/26 11:35:28;;;;;;;8.77;6.37;;;;;;;8.51;80.47;100273.66;4998800;28;20462;-44
2023/03/26 11:38:16;;;;;;;9.73;6.00;;;;;;;8.28;84.50;100274.72;5001016;28;20469;-49
2023/03/26 11:40:49;;;;;;;6.90;5.60;;;;;;;8.14;86.14;100275.59;4990740;28;20525;-44
2023/03/26 11:43:23;;;;;;;10.00;5.70;;;;;;;8.52;87.07;100273.47;4996829;28;20556;-49
2023/03/26 11:45:52;;;;;;;11.17;5.70;;;;;;;8.70;86.03;100281.75;4995554;28;20442;-46
2023/03/26 11:48:26;;;;;;;9.10;5.20;;;;;;;9.03;81.91;100275.78;5002266;28;20947;-44